createdAt,value
2023-04-16T00:02:18.106Z,97183.41
2023-04-16T00:04:46.915Z,97174.66
2023-04-16T00:07:15.196Z,97187.75
2023-04-16T00:09:43.400Z,97181.19
2023-04-16T00:12:11.750Z,97180.50
2023-04-16T00:14:40.021Z,97189.19
2023-04-16T00:17:08.445Z,97192.91
2023-04-16T00:19:38.371Z,97195.78
2023-04-16T00:22:06.748Z,97198.41
2023-04-16T00:24:35.051Z,97196.78
2023-04-16T00:27:03.668Z,97183.91
2023-04-16T00:29:32.488Z,97199.50
2023-04-16T00:32:00.591Z,97200.44
2023-04-16T00:34:28.782Z,97201.41
2023-04-16T00:36:58.260Z,97201.34
2023-04-16T00:39:26.516Z,97198.63
2023-04-16T00:41:54.719Z,97195.94
2023-04-16T00:44:22.974Z,97191.56
2023-04-16T00:46:52.154Z,97194.88
2023-04-16T00:49:21.104Z,97200.09
2023-04-16T00:51:49.463Z,97190.84
2023-04-16T00:54:19.420Z,97207.16
2023-04-16T00:56:48.213Z,97194.88
2023-04-16T00:59:16.933Z,97201.81
2023-04-16T01:01:45.341Z,97201.81
2023-04-16T01:04:13.712Z,97202.63
2023-04-16T01:06:43.926Z,97194.88
2023-04-16T01:09:12.896Z,97199.97
2023-04-16T01:11:42.559Z,97202.63
2023-04-16T01:14:10.834Z,97195.53
2023-04-16T01:16:39.646Z,97199.88
2023-04-16T01:19:08.326Z,97215.13
2023-04-16T01:21:38.136Z,97215.31
2023-04-16T01:24:07.027Z,97221.41
2023-04-16T01:26:35.255Z,97209.19
2023-04-16T01:29:03.893Z,97225.56
2023-04-16T01:31:32.106Z,97225.25
2023-04-16T01:34:07.272Z,97229.53
2023-04-16T01:36:37.863Z,97223.50
2023-04-16T01:39:06.204Z,97220.88
2023-04-16T01:41:34.544Z,97228.72
2023-04-16T01:44:02.710Z,97232.41
2023-04-16T01:46:34.612Z,97221.94
2023-04-16T01:49:03.046Z,97234.78
2023-04-16T01:51:32.296Z,97225.44
2023-04-16T01:54:01.993Z,97235.78
2023-04-16T01:56:30.388Z,97237.50
2023-04-16T01:58:58.613Z,97238.41
2023-04-16T02:01:30.853Z,97228.88
2023-04-16T02:03:59.502Z,97240.81
2023-04-16T02:06:28.621Z,97230.44
2023-04-16T02:08:56.843Z,97230.34
2023-04-16T02:11:27.297Z,97235.44
2023-04-16T02:13:56.404Z,97235.44
2023-04-16T02:16:25.114Z,97240.88
2023-04-16T02:19:11.644Z,97240.91
2023-04-16T02:21:41.845Z,97240.13
2023-04-16T02:24:10.057Z,97231.59
2023-04-16T02:26:39.780Z,97239.44
2023-04-16T02:29:14.389Z,97235.03
2023-04-16T02:31:46.824Z,97254.00
2023-04-16T02:34:16.166Z,97251.28
2023-04-16T02:36:44.297Z,97251.41
2023-04-16T02:39:12.524Z,97252.25
2023-04-16T02:41:42.304Z,97248.69
2023-04-16T02:44:10.565Z,97242.63
2023-04-16T02:46:38.749Z,97259.31
2023-04-16T02:49:07.269Z,97259.16
2023-04-16T02:51:35.762Z,97254.81
2023-04-16T02:54:04.260Z,97260.81
2023-04-16T02:56:33.364Z,97262.59
2023-04-16T02:59:03.098Z,97261.78
2023-04-16T03:01:31.352Z,97250.44
2023-04-16T03:03:59.844Z,97252.97
2023-04-16T03:06:28.245Z,97254.56
2023-04-16T03:08:56.403Z,97254.56
2023-04-16T03:11:25.032Z,97253.81
2023-04-16T03:13:53.972Z,97263.41
2023-04-16T03:16:23.623Z,97259.91
2023-04-16T03:18:51.906Z,97266.88
2023-04-16T03:21:20.094Z,97260.81
2023-04-16T03:23:48.334Z,97265.09
2023-04-16T03:26:16.602Z,97272.84
2023-04-16T03:28:44.896Z,97272.97
2023-04-16T03:31:13.549Z,97276.50
2023-04-16T03:33:43.151Z,97263.81
2023-04-16T03:36:11.728Z,97273.31
2023-04-16T03:38:40.097Z,97286.09
2023-04-16T03:41:08.829Z,97290.50
2023-04-16T03:43:37.216Z,97298.44
2023-04-16T03:46:06.618Z,97279.75
2023-04-16T03:48:35.085Z,97290.22
2023-04-16T03:51:04.910Z,97295.44
2023-04-16T03:53:34.289Z,97290.13
2023-04-16T03:56:02.563Z,97294.50
2023-04-16T03:58:31.387Z,97284.06
2023-04-16T04:00:59.639Z,97282.72
2023-04-16T04:03:28.179Z,97293.31
2023-04-16T04:05:57.239Z,97299.00
2023-04-16T04:08:30.837Z,97299.00
2023-04-16T04:10:58.974Z,97304.25
2023-04-16T04:13:27.190Z,97297.53
2023-04-16T04:15:55.773Z,97304.41
2023-04-16T04:18:24.898Z,97306.28
2023-04-16T04:20:53.500Z,97302.81
2023-04-16T04:23:25.523Z,97300.44
2023-04-16T04:25:55.271Z,97304.59
2023-04-16T04:28:23.850Z,97308.09
2023-04-16T04:30:52.140Z,97300.34
2023-04-16T04:33:20.696Z,97315.06
2023-04-16T04:35:49.488Z,97319.25
2023-04-16T04:38:20.196Z,97311.41
2023-04-16T04:40:49.347Z,97309.81
2023-04-16T04:43:21.722Z,97322.50
2023-04-16T04:45:50.043Z,97325.06
2023-04-16T04:48:18.785Z,97322.22
2023-04-16T04:50:48.016Z,97329.22
2023-04-16T04:53:16.413Z,97331.63
2023-04-16T04:55:44.772Z,97329.72
2023-04-16T04:58:13.130Z,97340.97
2023-04-16T05:00:44.692Z,97346.13
2023-04-16T05:03:14.240Z,97354.72
2023-04-16T05:05:42.616Z,97342.53
2023-04-16T05:08:10.991Z,97348.28
2023-04-16T05:10:39.260Z,97358.53
2023-04-16T05:13:07.816Z,97345.53
2023-04-16T05:15:36.122Z,97353.84
2023-04-16T05:18:05.872Z,97351.28
2023-04-16T05:20:34.081Z,97356.22
2023-04-16T05:23:02.427Z,97359.50
2023-04-16T05:25:30.800Z,97378.88
2023-04-16T05:27:59.151Z,97382.16
2023-04-16T05:30:27.448Z,97375.91
2023-04-16T05:32:55.738Z,97384.06
2023-04-16T05:35:25.491Z,97381.13
2023-04-16T05:37:53.724Z,97379.66
2023-04-16T05:40:22.210Z,97379.75
2023-04-16T05:42:50.640Z,97374.75
2023-04-16T05:45:19.375Z,97377.16
2023-04-16T05:47:47.961Z,97377.53
2023-04-16T05:50:16.388Z,97386.91
2023-04-16T05:52:46.309Z,97387.28
2023-04-16T05:55:14.628Z,97378.75
2023-04-16T05:57:42.816Z,97384.34
2023-04-16T06:00:11.550Z,97385.16
2023-04-16T06:02:42.936Z,97385.78
2023-04-16T06:05:11.971Z,97384.97
2023-04-16T06:07:40.433Z,97385.31
2023-04-16T06:10:11.885Z,97392.91
2023-04-16T06:12:40.365Z,97398.22
2023-04-16T06:15:10.251Z,97397.50
2023-04-16T06:17:39.010Z,97383.75
2023-04-16T06:20:08.577Z,97389.75
2023-04-16T06:22:37.000Z,97377.38
2023-04-16T06:25:05.871Z,97385.81
2023-04-16T06:27:35.885Z,97399.78
2023-04-16T06:30:04.474Z,97387.31
2023-04-16T06:32:32.838Z,97401.41
2023-04-16T06:35:01.109Z,97406.13
2023-04-16T06:37:29.332Z,97398.38
2023-04-16T06:39:57.754Z,97403.19
2023-04-16T06:42:27.561Z,97414.09
2023-04-16T06:44:57.340Z,97411.13
2023-04-16T06:47:27.260Z,97415.53
2023-04-16T06:49:56.057Z,97419.97
2023-04-16T06:52:24.615Z,97414.78
2023-04-16T06:54:52.839Z,97418.28
2023-04-16T06:57:21.059Z,97414.44
2023-04-16T06:59:49.417Z,97420.22
2023-04-16T07:02:19.747Z,97407.16
2023-04-16T07:04:48.368Z,97430.38
2023-04-16T07:07:16.863Z,97413.09
2023-04-16T07:09:45.227Z,97427.09
2023-04-16T07:12:13.890Z,97420.44
2023-04-16T07:14:42.954Z,97424.69
2023-04-16T07:17:11.462Z,97423.66
2023-04-16T07:19:41.695Z,97440.22
2023-04-16T07:22:10.251Z,97442.44
2023-04-16T07:24:38.786Z,97448.75
2023-04-16T07:27:07.423Z,97436.66
2023-04-16T07:29:36.640Z,97434.06
2023-04-16T07:32:06.293Z,97434.06
2023-04-16T07:34:34.603Z,97444.06
2023-04-16T07:37:04.602Z,97453.72
2023-04-16T07:39:33.562Z,97451.72
2023-04-16T07:42:02.678Z,97455.84
2023-04-16T07:44:31.996Z,97459.91
2023-04-16T07:47:01.895Z,97455.66
2023-04-16T07:49:31.255Z,97462.72
2023-04-16T07:51:59.603Z,97468.34
2023-04-16T07:54:29.354Z,97462.97
2023-04-16T07:56:57.623Z,97461.19
2023-04-16T07:59:26.600Z,97462.31
2023-04-16T08:01:55.497Z,97464.78
2023-04-16T08:04:26.472Z,97473.84
2023-04-16T08:06:55.284Z,97475.38
2023-04-16T08:09:25.211Z,97465.56
2023-04-16T08:11:55.260Z,97480.66
2023-04-16T08:14:23.628Z,97476.69
2023-04-16T08:16:51.776Z,97468.53
2023-04-16T08:19:20.161Z,97477.16
2023-04-16T08:21:48.755Z,97486.25
2023-04-16T08:24:17.177Z,97480.75
2023-04-16T08:26:45.531Z,97472.00
2023-04-16T08:29:15.189Z,97479.97
2023-04-16T08:31:43.640Z,97474.06
2023-04-16T08:34:12.742Z,97475.47
2023-04-16T08:36:41.830Z,97478.13
2023-04-16T08:39:10.520Z,97475.78
2023-04-16T08:41:42.179Z,97495.31
2023-04-16T08:44:13.393Z,97486.09
2023-04-16T08:46:44.330Z,97497.91
2023-04-16T08:49:18.110Z,97501.50
2023-04-16T08:51:51.998Z,97489.94
2023-04-16T08:54:32.359Z,97496.94
2023-04-16T08:57:01.617Z,97503.13
2023-04-16T08:59:30.625Z,97517.69
2023-04-16T09:02:01.868Z,97508.09
2023-04-16T09:04:30.784Z,97505.25
2023-04-16T09:07:00.166Z,97508.53
2023-04-16T09:09:28.724Z,97510.72
2023-04-16T09:11:57.596Z,97503.66
2023-04-16T09:14:26.423Z,97513.03
2023-04-16T09:16:55.838Z,97515.47
2023-04-16T09:19:25.859Z,97513.91
2023-04-16T09:21:54.253Z,97512.00
2023-04-16T09:24:23.215Z,97505.69
2023-04-16T09:26:53.072Z,97501.25
2023-04-16T09:29:37.841Z,97510.88
2023-04-16T09:32:07.816Z,97513.59
2023-04-16T09:34:56.143Z,97511.44
2023-04-16T09:37:25.062Z,97506.00
2023-04-16T09:39:59.141Z,97498.56
2023-04-16T09:42:29.410Z,97502.03
2023-04-16T09:45:00.331Z,97494.25
2023-04-16T09:47:42.256Z,97499.91
2023-04-16T09:50:20.706Z,97513.53
2023-04-16T09:52:51.894Z,97500.13
2023-04-16T09:55:24.912Z,97505.63
2023-04-16T09:58:00.485Z,97499.28
2023-04-16T10:00:31.235Z,97496.88
2023-04-16T10:03:07.517Z,97491.19
2023-04-16T10:05:37.853Z,97484.44
2023-04-16T10:08:13.528Z,97493.38
2023-04-16T10:10:42.919Z,97479.44
2023-04-16T10:13:12.912Z,97487.28
2023-04-16T10:15:42.218Z,97487.28
2023-04-16T10:18:11.514Z,97482.25
2023-04-16T10:20:41.961Z,97489.25
2023-04-16T10:23:11.081Z,97490.16
2023-04-16T10:25:40.493Z,97476.69
2023-04-16T10:28:10.798Z,97480.75
2023-04-16T10:30:39.894Z,97478.19
2023-04-16T10:33:09.773Z,97476.19
2023-04-16T10:35:42.414Z,97474.03
2023-04-16T10:38:24.852Z,97487.28
2023-04-16T10:41:01.547Z,97473.28
2023-04-16T10:43:31.381Z,97463.47
2023-04-16T10:46:18.727Z,97465.78
2023-04-16T10:48:50.233Z,97466.97
2023-04-16T10:51:34.423Z,97453.00
2023-04-16T10:54:05.950Z,97459.00
2023-04-16T10:56:35.590Z,97441.78
2023-04-16T10:59:06.810Z,97444.53
2023-04-16T11:01:36.807Z,97450.13
2023-04-16T11:04:35.039Z,97445.22
2023-04-16T11:07:08.018Z,97449.78
2023-04-16T11:09:55.235Z,97447.75
2023-04-16T11:12:27.497Z,97452.84
2023-04-16T11:14:59.479Z,97451.00
2023-04-16T11:17:31.403Z,97446.69
2023-04-16T11:20:00.423Z,97444.38
2023-04-16T11:22:30.595Z,97434.22
2023-04-16T11:24:59.215Z,97453.38
2023-04-16T11:27:27.714Z,97449.69
2023-04-16T11:30:00.320Z,97442.63
2023-04-16T11:32:28.788Z,97435.38
2023-04-16T11:34:57.359Z,97440.69
2023-04-16T11:37:35.213Z,97441.38
2023-04-16T11:40:07.130Z,97442.69
2023-04-16T11:42:37.311Z,97435.19
2023-04-16T11:45:06.284Z,97438.63
2023-04-16T11:47:44.628Z,97438.78
2023-04-16T11:50:24.057Z,97437.53
2023-04-16T11:52:55.685Z,97428.47
2023-04-16T11:55:25.677Z,97419.94
2023-04-16T11:57:54.146Z,97425.13
2023-04-16T12:00:24.621Z,97427.31
2023-04-16T12:02:54.689Z,97428.66
2023-04-16T12:05:32.410Z,97426.50
2023-04-16T12:08:03.974Z,97427.94
2023-04-16T12:10:35.409Z,97424.88
2023-04-16T12:13:14.315Z,97428.06
2023-04-16T12:15:47.430Z,97435.19
2023-04-16T12:18:16.656Z,97424.06
2023-04-16T12:20:46.288Z,97426.00
2023-04-16T12:23:26.764Z,97417.53
2023-04-16T12:25:55.844Z,97429.38
2023-04-16T12:28:32.175Z,97415.47
2023-04-16T12:31:01.270Z,97416.94
2023-04-16T12:33:30.767Z,97426.88
2023-04-16T12:35:59.597Z,97428.34
2023-04-16T12:38:30.637Z,97425.41
2023-04-16T12:40:59.261Z,97412.44
2023-04-16T12:43:28.632Z,97412.94
2023-04-16T12:45:57.412Z,97416.84
2023-04-16T12:48:26.023Z,97418.88
2023-04-16T12:50:55.478Z,97405.78
2023-04-16T12:53:24.326Z,97415.69
2023-04-16T12:55:54.906Z,97416.16
2023-04-16T12:58:23.490Z,97422.34
2023-04-16T13:00:52.018Z,97417.88
2023-04-16T13:03:21.282Z,97419.91
2023-04-16T13:05:49.999Z,97406.94
2023-04-16T13:08:19.080Z,97402.00
2023-04-16T13:10:48.289Z,97418.75
2023-04-16T13:13:18.602Z,97406.66
2023-04-16T13:15:47.358Z,97417.53
2023-04-16T13:18:16.293Z,97417.34
2023-04-16T13:20:45.122Z,97411.81
2023-04-16T13:23:13.707Z,97415.78
2023-04-16T13:25:42.633Z,97418.03
2023-04-16T13:28:11.464Z,97423.16
2023-04-16T13:30:41.541Z,97419.72
2023-04-16T13:33:10.647Z,97422.38
2023-04-16T13:35:40.304Z,97406.94
2023-04-16T13:38:09.460Z,97424.75
2023-04-16T13:40:41.202Z,97429.47
2023-04-16T13:43:10.227Z,97431.75
2023-04-16T13:45:41.748Z,97436.88
2023-04-16T13:48:11.340Z,97434.69
2023-04-16T13:50:40.422Z,97436.72
2023-04-16T13:53:09.568Z,97432.81
2023-04-16T13:55:38.773Z,97443.59
2023-04-16T13:58:09.456Z,97444.06
2023-04-16T14:00:39.271Z,97440.00
2023-04-16T14:03:09.357Z,97442.09
2023-04-16T14:05:37.814Z,97446.41
2023-04-16T14:08:06.958Z,97458.28
2023-04-16T14:10:35.776Z,97448.63
2023-04-16T14:13:04.495Z,97441.50
2023-04-16T14:15:33.482Z,97439.81
2023-04-16T14:18:04.217Z,97440.22
2023-04-16T14:20:34.241Z,97441.91
2023-04-16T14:23:03.153Z,97445.53
2023-04-16T14:25:33.823Z,97429.66
2023-04-16T14:28:02.564Z,97448.22
2023-04-16T14:30:30.867Z,97446.16
2023-04-16T14:33:00.322Z,97442.13
2023-04-16T14:35:28.753Z,97442.41
2023-04-16T14:37:59.527Z,97443.28
2023-04-16T14:40:28.305Z,97427.06
2023-04-16T14:42:57.118Z,97448.44
2023-04-16T14:45:30.115Z,97436.50
2023-04-16T14:47:58.635Z,97436.72
2023-04-16T14:50:27.082Z,97438.84
2023-04-16T14:52:56.079Z,97432.19
2023-04-16T14:55:26.082Z,97440.28
2023-04-16T14:57:55.234Z,97437.84
2023-04-16T15:00:23.727Z,97435.28
2023-04-16T15:02:53.049Z,97454.50
2023-04-16T15:05:22.088Z,97442.34
2023-04-16T15:07:51.414Z,97449.59
2023-04-16T15:10:20.077Z,97447.50
2023-04-16T15:12:50.416Z,97455.56
2023-04-16T15:15:19.150Z,97458.38
2023-04-16T15:17:48.731Z,97452.41
2023-04-16T15:20:17.973Z,97459.84
2023-04-16T15:22:47.306Z,97463.31
2023-04-16T15:25:16.431Z,97466.81
2023-04-16T15:27:45.504Z,97474.16
2023-04-16T15:30:16.108Z,97470.25
2023-04-16T15:32:46.130Z,97467.19
2023-04-16T15:35:15.722Z,97467.41
2023-04-16T15:37:45.815Z,97469.94
2023-04-16T15:40:16.164Z,97471.44
2023-04-16T15:42:45.782Z,97467.47
2023-04-16T15:45:15.757Z,97481.59
2023-04-16T15:47:45.910Z,97486.91
2023-04-16T15:50:15.358Z,97488.44
2023-04-16T15:52:51.736Z,97476.97
2023-04-16T15:55:21.564Z,97496.41
2023-04-16T15:57:50.934Z,97486.91
2023-04-16T16:00:23.825Z,97492.22
2023-04-16T16:02:54.406Z,97491.13
2023-04-16T16:05:26.997Z,97490.94
2023-04-16T16:07:55.879Z,97490.91
2023-04-16T16:10:24.989Z,97503.44
2023-04-16T16:12:55.165Z,97502.47
2023-04-16T16:15:26.395Z,97507.63
2023-04-16T16:17:56.284Z,97509.75
2023-04-16T16:20:26.427Z,97499.03
2023-04-16T16:22:57.064Z,97512.06
2023-04-16T16:25:25.774Z,97520.53
2023-04-16T16:27:54.957Z,97521.97
2023-04-16T16:30:27.002Z,97517.84
2023-04-16T16:32:57.426Z,97508.75
2023-04-16T16:35:27.605Z,97529.03
2023-04-16T16:37:59.083Z,97532.53
2023-04-16T16:40:28.486Z,97524.78
2023-04-16T16:42:58.380Z,97522.22
2023-04-16T16:45:32.724Z,97522.13
2023-04-16T16:48:01.688Z,97530.91
2023-04-16T16:50:32.109Z,97529.59
2023-04-16T16:53:01.307Z,97518.66
2023-04-16T16:55:30.504Z,97537.97
2023-04-16T16:58:00.199Z,97522.63
2023-04-16T17:00:31.102Z,97534.84
2023-04-16T17:03:01.310Z,97531.56
2023-04-16T17:05:31.450Z,97533.22
2023-04-16T17:08:00.640Z,97536.09
2023-04-16T17:10:31.176Z,97529.09
2023-04-16T17:13:00.620Z,97536.28
2023-04-16T17:15:31.756Z,97544.22
2023-04-16T17:18:00.484Z,97528.91
2023-04-16T17:20:30.134Z,97543.22
2023-04-16T17:23:00.178Z,97535.44
2023-04-16T17:25:30.761Z,97534.41
2023-04-16T17:28:00.054Z,97540.56
2023-04-16T17:30:29.105Z,97539.72
2023-04-16T17:33:00.112Z,97543.88
2023-04-16T17:35:29.975Z,97541.94
2023-04-16T17:38:00.236Z,97545.31
2023-04-16T17:40:29.791Z,97551.94
2023-04-16T17:42:58.840Z,97549.19
2023-04-16T17:45:28.731Z,97553.91
2023-04-16T17:47:59.429Z,97557.25
2023-04-16T17:50:28.535Z,97541.34
2023-04-16T17:52:58.792Z,97557.78
2023-04-16T17:55:31.442Z,97572.78
2023-04-16T17:58:00.986Z,97573.81
2023-04-16T18:00:30.425Z,97582.75
2023-04-16T18:03:18.306Z,97578.75
2023-04-16T18:05:48.225Z,97580.06
2023-04-16T18:08:18.634Z,97588.91
2023-04-16T18:10:48.062Z,97584.50
2023-04-16T18:13:20.541Z,97584.75
2023-04-16T18:15:50.141Z,97581.78
2023-04-16T18:18:21.966Z,97574.69
2023-04-16T18:20:51.183Z,97585.81
2023-04-16T18:23:20.190Z,97591.91
2023-04-16T18:25:49.336Z,97582.81
2023-04-16T18:28:24.644Z,97594.81
2023-04-16T18:30:53.755Z,97598.75
2023-04-16T18:33:44.404Z,97601.81
2023-04-16T18:36:15.314Z,97608.28
2023-04-16T18:38:59.561Z,97608.44
2023-04-16T18:41:29.721Z,97606.47
2023-04-16T18:43:58.799Z,97612.19
2023-04-16T18:46:30.667Z,97606.38
2023-04-16T18:49:01.581Z,97610.28
2023-04-16T18:51:42.504Z,97610.28
2023-04-16T18:54:14.547Z,97611.81
2023-04-16T18:56:46.531Z,97608.97
2023-04-16T18:59:17.257Z,97611.34
2023-04-16T19:01:50.115Z,97601.50
2023-04-16T19:04:23.208Z,97608.56
2023-04-16T19:06:54.460Z,97601.56
2023-04-16T19:09:24.164Z,97610.56
2023-04-16T19:11:54.023Z,97612.47
2023-04-16T19:14:23.311Z,97604.97
2023-04-16T19:16:53.136Z,97600.47
2023-04-16T19:19:24.290Z,97608.25
2023-04-16T19:21:54.316Z,97607.31
2023-04-16T19:24:24.414Z,97604.91
2023-04-16T19:26:54.367Z,97608.41
2023-04-16T19:29:23.872Z,97610.91
2023-04-16T19:31:57.779Z,97601.41
2023-04-16T19:34:29.702Z,97603.00
2023-04-16T19:37:00.654Z,97606.69
2023-04-16T19:39:32.138Z,97605.97
2023-04-16T19:42:02.730Z,97610.25
2023-04-16T19:44:33.045Z,97598.78
2023-04-16T19:47:02.003Z,97609.34
2023-04-16T19:49:38.862Z,97607.78
2023-04-16T19:52:08.455Z,97610.50
2023-04-16T19:54:38.125Z,97607.78
2023-04-16T19:57:07.344Z,97599.25
2023-04-16T19:59:37.365Z,97593.50
2023-04-16T20:02:07.658Z,97609.03
2023-04-16T20:04:37.971Z,97602.97
2023-04-16T20:07:07.770Z,97598.63
2023-04-16T20:09:37.662Z,97608.19
2023-04-16T20:12:07.335Z,97594.28
2023-04-16T20:14:36.294Z,97592.34
2023-04-16T20:17:10.376Z,97603.28
2023-04-16T20:19:41.207Z,97610.28
2023-04-16T20:22:10.049Z,97610.78
2023-04-16T20:24:42.311Z,97607.91
2023-04-16T20:27:13.181Z,97606.09
2023-04-16T20:29:42.479Z,97606.88
2023-04-16T20:32:12.001Z,97606.63
2023-04-16T20:34:41.883Z,97595.28
2023-04-16T20:37:10.578Z,97602.91
2023-04-16T20:39:40.645Z,97589.06
2023-04-16T20:42:10.611Z,97594.13
2023-04-16T20:44:41.476Z,97593.88
2023-04-16T20:47:11.461Z,97588.44
2023-04-16T20:49:46.996Z,97584.75
2023-04-16T20:52:16.315Z,97585.59
2023-04-16T20:54:44.595Z,97581.75
2023-04-16T20:57:13.023Z,97587.75
2023-04-16T20:59:41.393Z,97586.63
2023-04-16T21:02:10.220Z,97583.66
2023-04-16T21:04:38.607Z,97574.25
2023-04-16T21:07:08.732Z,97580.69
2023-04-16T21:09:37.312Z,97584.84
2023-04-16T21:12:06.256Z,97574.53
2023-04-16T21:14:34.752Z,97571.13
2023-04-16T21:17:03.123Z,97581.19
2023-04-16T21:19:31.390Z,97577.41
2023-04-16T21:21:59.696Z,97585.03
2023-04-16T21:24:29.483Z,97581.84
2023-04-16T21:26:58.087Z,97587.06
2023-04-16T21:29:26.406Z,97584.25
2023-04-16T21:31:55.493Z,97585.09
2023-04-16T21:34:23.938Z,97580.19
2023-04-16T21:36:52.268Z,97581.97
2023-04-16T21:39:21.895Z,97586.31
2023-04-16T21:41:51.990Z,97580.19
2023-04-16T21:44:21.250Z,97580.19
2023-04-16T21:46:49.958Z,97574.69
2023-04-16T21:49:18.372Z,97583.91
2023-04-16T21:51:47.293Z,97576.84
2023-04-16T21:54:18.094Z,97583.56
2023-04-16T21:56:46.475Z,97585.28
2023-04-16T21:59:16.536Z,97583.91
2023-04-16T22:01:44.816Z,97586.63
2023-04-16T22:04:13.447Z,97585.97
2023-04-16T22:06:41.812Z,97581.53
2023-04-16T22:09:10.375Z,97585.03
2023-04-16T22:11:39.035Z,97588.69
2023-04-16T22:14:08.935Z,97585.84
2023-04-16T22:16:38.680Z,97577.25
2023-04-16T22:19:07.476Z,97579.63
2023-04-16T22:21:35.807Z,97573.19
2023-04-16T22:24:03.999Z,97561.41
2023-04-16T22:26:32.300Z,97567.53
2023-04-16T22:29:00.725Z,97569.25
2023-04-16T22:31:29.304Z,97562.41
2023-04-16T22:33:59.806Z,97573.00
2023-04-16T22:36:29.388Z,97573.34
2023-04-16T22:38:59.136Z,97567.13
2023-04-16T22:41:27.377Z,97567.38
2023-04-16T22:43:55.616Z,97571.13
2023-04-16T22:46:26.383Z,97570.25
2023-04-16T22:48:54.887Z,97567.69
2023-04-16T22:51:25.447Z,97567.19
2023-04-16T22:53:54.391Z,97574.19
2023-04-16T22:56:22.668Z,97566.53
2023-04-16T22:58:50.955Z,97570.69
2023-04-16T23:01:19.252Z,97573.25
2023-04-16T23:03:47.684Z,97560.38
2023-04-16T23:06:16.055Z,97567.97
2023-04-16T23:08:45.691Z,97565.31
2023-04-16T23:11:14.221Z,97565.16
2023-04-16T23:13:42.981Z,97568.41
2023-04-16T23:16:11.643Z,97569.19
2023-04-16T23:18:39.837Z,97568.97
2023-04-16T23:21:08.136Z,97559.03
2023-04-16T23:23:36.887Z,97562.94
2023-04-16T23:26:06.728Z,97551.25
2023-04-16T23:28:35.127Z,97548.63
2023-04-16T23:31:05.273Z,97553.75
2023-04-16T23:33:35.123Z,97552.88
2023-04-16T23:36:03.589Z,97553.75
2023-04-16T23:38:32.626Z,97547.09
2023-04-16T23:41:00.753Z,97543.47
2023-04-16T23:43:30.577Z,97540.25
2023-04-16T23:45:59.424Z,97530.38
2023-04-16T23:48:27.857Z,97520.56
2023-04-16T23:50:56.175Z,97534.63
2023-04-16T23:53:24.574Z,97531.03
2023-04-16T23:55:53.068Z,97530.53
2023-04-16T23:58:21.262Z,97525.75
